sensor_id;sensor_type;location;lat;lon;timestamp;P1;durP1;ratioP1;P2;durP2;ratioP2
77038;SDS011;65970;50.476;4.840;2023-01-16T11:14:18;0.30;;;0.10;;
77038;SDS011;65970;50.476;4.840;2023-01-16T11:19:23;4.18;;;1.13;;
77038;SDS011;65970;50.476;4.840;2023-01-16T11:34:50;0.30;;;0.13;;
77038;SDS011;65970;50.476;4.840;2023-01-16T11:39:54;0.50;;;0.20;;
77038;SDS011;65970;50.476;4.840;2023-01-16T11:44:58;0.85;;;0.45;;
77038;SDS011;65970;50.476;4.840;2023-01-16T11:55:14;0.30;;;0.30;;
77038;SDS011;65970;50.476;4.840;2023-01-16T12:00:24;0.45;;;0.45;;
77038;SDS011;65970;50.476;4.840;2023-01-16T12:11:11;0.52;;;0.40;;
77038;SDS011;65970;50.476;4.840;2023-01-16T12:21:38;0.75;;;0.30;;
77038;SDS011;65970;50.476;4.840;2023-01-16T12:27:04;0.17;;;0.17;;
77038;SDS011;65970;50.476;4.840;2023-01-16T12:32:10;0.30;;;0.30;;
77038;SDS011;65970;50.476;4.840;2023-01-16T12:43:17;2.08;;;0.63;;
77038;SDS011;65970;50.476;4.840;2023-01-16T12:54:01;0.30;;;0.30;;
77038;SDS011;65970;50.476;4.840;2023-01-16T12:59:16;0.20;;;0.20;;
77038;SDS011;65970;50.476;4.840;2023-01-16T13:04:26;0.82;;;0.20;;
77038;SDS011;65970;50.476;4.840;2023-01-16T13:09:38;0.25;;;0.25;;
77038;SDS011;65970;50.476;4.840;2023-01-16T13:14:44;0.20;;;0.20;;
77038;SDS011;65970;50.476;4.840;2023-01-16T13:19:49;1.80;;;0.68;;
77038;SDS011;65970;50.476;4.840;2023-01-16T13:25:14;0.20;;;0.20;;
77038;SDS011;65970;50.476;4.840;2023-01-16T13:30:23;0.30;;;0.20;;
77038;SDS011;65970;50.476;4.840;2023-01-16T13:35:38;0.13;;;0.10;;
77038;SDS011;65970;50.476;4.840;2023-01-16T13:46:08;0.68;;;0.38;;
77038;SDS011;65970;50.476;4.840;2023-01-16T13:51:13;1.88;;;0.93;;
77038;SDS011;65970;50.476;4.840;2023-01-16T13:56:18;0.40;;;0.40;;
77038;SDS011;65970;50.476;4.840;2023-01-16T14:17:13;2.10;;;0.90;;
77038;SDS011;65970;50.476;4.840;2023-01-16T14:22:18;0.63;;;0.63;;
77038;SDS011;65970;50.476;4.840;2023-01-16T14:27:22;0.30;;;0.30;;
77038;SDS011;65970;50.476;4.840;2023-01-16T14:32:35;0.30;;;0.30;;
77038;SDS011;65970;50.476;4.840;2023-01-16T14:37:45;0.22;;;0.20;;
77038;SDS011;65970;50.476;4.840;2023-01-16T14:43:03;0.68;;;0.68;;
77038;SDS011;65970;50.476;4.840;2023-01-16T14:53:23;0.20;;;0.20;;
77038;SDS011;65970;50.476;4.840;2023-01-16T14:58:47;0.20;;;0.20;;
77038;SDS011;65970;50.476;4.840;2023-01-16T15:03:50;0.65;;;0.35;;
77038;SDS011;65970;50.476;4.840;2023-01-16T15:08:51;0.75;;;0.40;;
77038;SDS011;65970;50.476;4.840;2023-01-16T15:14:05;3.08;;;0.70;;
77038;SDS011;65970;50.476;4.840;2023-01-16T15:19:16;1.25;;;0.85;;
77038;SDS011;65970;50.476;4.840;2023-01-16T15:24:20;0.70;;;0.70;;
77038;SDS011;65970;50.476;4.840;2023-01-16T15:35:04;1.33;;;0.75;;
77038;SDS011;65970;50.476;4.840;2023-01-16T15:40:24;2.20;;;0.90;;
77038;SDS011;65970;50.476;4.840;2023-01-16T15:45:26;0.73;;;0.73;;
77038;SDS011;65970;50.476;4.840;2023-01-16T15:50:30;2.58;;;1.17;;
77038;SDS011;65970;50.476;4.840;2023-01-16T15:55:52;1.60;;;1.17;;
77038;SDS011;65970;50.476;4.840;2023-01-16T16:01:02;5.45;;;1.08;;
77038;SDS011;65970;50.476;4.840;2023-01-16T16:11:07;1.10;;;0.45;;
77038;SDS011;65970;50.476;4.840;2023-01-16T16:16:18;0.85;;;0.47;;
77038;SDS011;65970;50.476;4.840;2023-01-16T16:21:25;0.38;;;0.38;;
77038;SDS011;65970;50.476;4.840;2023-01-16T16:26:37;0.38;;;0.30;;
77038;SDS011;65970;50.476;4.840;2023-01-16T16:31:42;0.90;;;0.60;;
77038;SDS011;65970;50.476;4.840;2023-01-16T16:36:43;0.30;;;0.30;;
77038;SDS011;65970;50.476;4.840;2023-01-16T16:41:46;0.47;;;0.30;;
77038;SDS011;65970;50.476;4.840;2023-01-16T16:46:47;0.30;;;0.25;;
77038;SDS011;65970;50.476;4.840;2023-01-16T16:51:48;0.55;;;0.45;;
77038;SDS011;65970;50.476;4.840;2023-01-16T16:56:49;0.20;;;0.20;;
77038;SDS011;65970;50.476;4.840;2023-01-16T17:01:55;0.40;;;0.40;;
77038;SDS011;65970;50.476;4.840;2023-01-16T17:06:57;0.30;;;0.30;;
77038;SDS011;65970;50.476;4.840;2023-01-16T17:12:17;0.90;;;0.20;;
77038;SDS011;65970;50.476;4.840;2023-01-16T17:17:19;0.20;;;0.20;;
77038;SDS011;65970;50.476;4.840;2023-01-16T17:22:19;1.27;;;0.63;;
77038;SDS011;65970;50.476;4.840;2023-01-16T17:27:20;0.20;;;0.20;;
77038;SDS011;65970;50.476;4.840;2023-01-16T17:32:27;0.20;;;0.20;;
77038;SDS011;65970;50.476;4.840;2023-01-16T17:37:29;0.40;;;0.40;;
77038;SDS011;65970;50.476;4.840;2023-01-16T17:42:29;1.73;;;0.52;;
77038;SDS011;65970;50.476;4.840;2023-01-16T17:47:30;0.38;;;0.32;;
77038;SDS011;65970;50.476;4.840;2023-01-16T17:52:30;0.20;;;0.20;;
77038;SDS011;65970;50.476;4.840;2023-01-16T17:57:31;1.42;;;0.22;;
77038;SDS011;65970;50.476;4.840;2023-01-16T18:02:32;1.30;;;0.40;;
77038;SDS011;65970;50.476;4.840;2023-01-16T18:07:32;1.17;;;0.35;;
77038;SDS011;65970;50.476;4.840;2023-01-16T18:12:33;0.20;;;0.20;;
77038;SDS011;65970;50.476;4.840;2023-01-16T18:17:33;0.30;;;0.30;;
77038;SDS011;65970;50.476;4.840;2023-01-16T18:22:34;0.20;;;0.20;;
77038;SDS011;65970;50.476;4.840;2023-01-16T18:27:34;0.50;;;0.40;;
77038;SDS011;65970;50.476;4.840;2023-01-16T18:32:36;0.57;;;0.50;;
77038;SDS011;65970;50.476;4.840;2023-01-16T18:37:40;0.82;;;0.80;;
77038;SDS011;65970;50.476;4.840;2023-01-16T18:42:42;1.60;;;1.10;;
77038;SDS011;65970;50.476;4.840;2023-01-16T18:47:42;2.33;;;1.30;;
77038;SDS011;65970;50.476;4.840;2023-01-16T18:52:43;1.92;;;1.40;;
77038;SDS011;65970;50.476;4.840;2023-01-16T18:57:44;1.95;;;1.33;;
77038;SDS011;65970;50.476;4.840;2023-01-16T19:02:45;3.50;;;1.92;;
77038;SDS011;65970;50.476;4.840;2023-01-16T19:07:48;3.70;;;1.50;;
77038;SDS011;65970;50.476;4.840;2023-01-16T19:12:50;2.90;;;1.90;;
77038;SDS011;65970;50.476;4.840;2023-01-16T19:17:51;5.10;;;2.15;;
77038;SDS011;65970;50.476;4.840;2023-01-16T19:22:52;2.13;;;1.38;;
77038;SDS011;65970;50.476;4.840;2023-01-16T19:27:52;2.45;;;1.98;;
77038;SDS011;65970;50.476;4.840;2023-01-16T19:32:53;8.75;;;2.10;;
77038;SDS011;65970;50.476;4.840;2023-01-16T19:37:54;2.47;;;1.50;;
77038;SDS011;65970;50.476;4.840;2023-01-16T19:42:54;6.32;;;1.98;;
77038;SDS011;65970;50.476;4.840;2023-01-16T19:47:55;4.00;;;1.90;;
77038;SDS011;65970;50.476;4.840;2023-01-16T19:52:55;3.72;;;1.63;;
77038;SDS011;65970;50.476;4.840;2023-01-16T19:57:56;1.65;;;1.55;;
77038;SDS011;65970;50.476;4.840;2023-01-16T20:02:56;2.10;;;1.35;;
77038;SDS011;65970;50.476;4.840;2023-01-16T20:07:57;7.82;;;1.70;;
77038;SDS011;65970;50.476;4.840;2023-01-16T20:12:57;3.45;;;1.65;;
77038;SDS011;65970;50.476;4.840;2023-01-16T20:17:58;7.30;;;2.38;;
77038;SDS011;65970;50.476;4.840;2023-01-16T20:22:58;2.35;;;1.95;;
77038;SDS011;65970;50.476;4.840;2023-01-16T20:27:59;4.05;;;2.20;;
77038;SDS011;65970;50.476;4.840;2023-01-16T20:32:59;3.22;;;2.30;;
77038;SDS011;65970;50.476;4.840;2023-01-16T20:38:00;4.50;;;2.42;;
77038;SDS011;65970;50.476;4.840;2023-01-16T20:43:01;2.95;;;1.60;;
77038;SDS011;65970;50.476;4.840;2023-01-16T20:58:47;2.50;;;1.70;;
77038;SDS011;65970;50.476;4.840;2023-01-16T21:03:48;2.65;;;1.90;;
77038;SDS011;65970;50.476;4.840;2023-01-16T21:08:49;4.43;;;1.90;;
77038;SDS011;65970;50.476;4.840;2023-01-16T21:13:49;4.28;;;1.45;;
77038;SDS011;65970;50.476;4.840;2023-01-16T21:18:50;2.58;;;1.52;;
77038;SDS011;65970;50.476;4.840;2023-01-16T21:23:50;3.40;;;2.03;;
77038;SDS011;65970;50.476;4.840;2023-01-16T21:28:51;1.55;;;1.42;;
77038;SDS011;65970;50.476;4.840;2023-01-16T21:33:52;1.48;;;1.25;;
77038;SDS011;65970;50.476;4.840;2023-01-16T21:38:53;1.40;;;1.30;;
77038;SDS011;65970;50.476;4.840;2023-01-16T21:43:53;1.48;;;1.38;;
77038;SDS011;65970;50.476;4.840;2023-01-16T21:48:54;1.90;;;1.20;;
77038;SDS011;65970;50.476;4.840;2023-01-16T21:53:55;3.50;;;1.50;;
77038;SDS011;65970;50.476;4.840;2023-01-16T21:58:56;2.70;;;1.63;;
77038;SDS011;65970;50.476;4.840;2023-01-16T22:03:58;2.35;;;1.48;;
77038;SDS011;65970;50.476;4.840;2023-01-16T22:08:58;1.85;;;1.48;;
77038;SDS011;65970;50.476;4.840;2023-01-16T22:13:59;2.88;;;1.70;;
77038;SDS011;65970;50.476;4.840;2023-01-16T22:19:01;4.60;;;2.10;;
77038;SDS011;65970;50.476;4.840;2023-01-16T22:24:01;2.08;;;1.55;;
77038;SDS011;65970;50.476;4.840;2023-01-16T22:29:02;2.60;;;1.52;;
77038;SDS011;65970;50.476;4.840;2023-01-16T22:34:03;3.10;;;1.73;;
77038;SDS011;65970;50.476;4.840;2023-01-16T22:39:03;2.88;;;2.08;;
77038;SDS011;65970;50.476;4.840;2023-01-16T22:44:04;2.05;;;1.80;;
77038;SDS011;65970;50.476;4.840;2023-01-16T22:49:04;2.28;;;2.00;;
77038;SDS011;65970;50.476;4.840;2023-01-16T22:54:05;5.85;;;2.30;;
77038;SDS011;65970;50.476;4.840;2023-01-16T22:59:05;4.10;;;2.40;;
77038;SDS011;65970;50.476;4.840;2023-01-16T23:04:06;5.88;;;2.00;;
77038;SDS011;65970;50.476;4.840;2023-01-16T23:09:07;2.65;;;2.00;;
77038;SDS011;65970;50.476;4.840;2023-01-16T23:14:09;5.95;;;2.35;;
77038;SDS011;65970;50.476;4.840;2023-01-16T23:24:15;2.83;;;2.00;;
77038;SDS011;65970;50.476;4.840;2023-01-16T23:29:18;5.25;;;2.40;;
77038;SDS011;65970;50.476;4.840;2023-01-16T23:34:19;3.40;;;2.03;;
77038;SDS011;65970;50.476;4.840;2023-01-16T23:39:22;7.10;;;2.33;;
77038;SDS011;65970;50.476;4.840;2023-01-16T23:44:22;4.10;;;2.40;;
77038;SDS011;65970;50.476;4.840;2023-01-16T23:49:29;2.25;;;2.03;;
77038;SDS011;65970;50.476;4.840;2023-01-16T23:54:31;2.70;;;2.30;;
77038;SDS011;65970;50.476;4.840;2023-01-16T23:59:32;5.45;;;2.42;;
